createdAt,value
2019-03-30T00:00:30.711Z,21.23
2019-03-30T00:03:00.264Z,20.75
2019-03-30T00:05:30.911Z,21.20
2019-03-30T00:08:00.471Z,20.92
2019-03-30T00:10:30.050Z,21.05
2019-03-30T00:12:59.907Z,21.30
2019-03-30T00:15:29.458Z,20.05
2019-03-30T00:17:59.067Z,19.30
2019-03-30T00:20:28.663Z,20.45
2019-03-30T00:22:58.235Z,19.82
2019-03-30T00:25:27.900Z,19.77
2019-03-30T00:27:57.469Z,18.75
2019-03-30T00:30:27.029Z,20.60
2019-03-30T00:32:56.598Z,18.82
2019-03-30T00:35:26.151Z,19.87
2019-03-30T00:37:55.758Z,20.92
2019-03-30T00:40:25.301Z,20.10
2019-03-30T00:42:54.865Z,19.48
2019-03-30T00:45:24.420Z,20.50
2019-03-30T00:47:53.975Z,20.65
2019-03-30T00:50:23.567Z,20.72
2019-03-30T00:52:53.111Z,21.57
2019-03-30T00:55:22.981Z,20.60
2019-03-30T00:57:52.537Z,21.75
2019-03-30T01:00:22.099Z,20.95
2019-03-30T01:02:52.014Z,22.55
2019-03-30T01:05:21.556Z,21.93
2019-03-30T01:07:51.115Z,23.18
2019-03-30T01:10:21.126Z,23.27
2019-03-30T01:12:50.653Z,24.02
2019-03-30T01:15:20.247Z,24.05
2019-03-30T01:17:49.786Z,23.60
2019-03-30T01:20:19.775Z,24.12
2019-03-30T01:22:49.695Z,24.82
2019-03-30T01:25:19.255Z,25.70
2019-03-30T01:27:48.857Z,25.27
2019-03-30T01:30:23.350Z,25.90
2019-03-30T01:32:49.630Z,26.30
2019-03-30T01:35:19.216Z,26.25
2019-03-30T01:37:48.837Z,25.57
2019-03-30T01:40:18.703Z,28.12
2019-03-30T01:42:48.328Z,26.30
2019-03-30T01:45:18.031Z,27.02
2019-03-30T01:47:47.595Z,27.55
2019-03-30T01:50:18.198Z,27.90
2019-03-30T01:52:48.819Z,28.05
2019-03-30T01:55:18.377Z,27.27
2019-03-30T01:57:48.036Z,27.42
2019-03-30T02:00:17.789Z,27.67
2019-03-30T02:02:47.409Z,27.50
2019-03-30T02:05:16.955Z,26.77
2019-03-30T02:07:46.524Z,27.37
2019-03-30T02:10:20.198Z,27.07
2019-03-30T02:12:49.757Z,28.27
2019-03-30T02:15:19.606Z,27.73
2019-03-30T02:17:49.152Z,27.65
2019-03-30T02:20:30.988Z,28.32
2019-03-30T02:22:58.874Z,28.55
2019-03-30T02:25:28.526Z,27.70
2019-03-30T02:27:58.896Z,27.67
2019-03-30T02:30:28.449Z,28.23
2019-03-30T02:32:58.008Z,27.95
2019-03-30T02:35:27.571Z,27.98
2019-03-30T02:37:57.140Z,27.48
2019-03-30T02:40:26.682Z,28.32
2019-03-30T02:42:56.193Z,28.40
2019-03-30T02:45:26.754Z,27.42
2019-03-30T02:47:56.343Z,27.67
2019-03-30T02:50:25.879Z,27.65
2019-03-30T02:52:55.592Z,29.52
2019-03-30T02:55:25.204Z,28.87
2019-03-30T02:57:54.766Z,29.07
2019-03-30T03:00:24.348Z,28.75
2019-03-30T03:02:53.889Z,29.63
2019-03-30T03:05:23.459Z,28.98
2019-03-30T03:07:53.022Z,28.55
2019-03-30T03:10:22.584Z,28.45
2019-03-30T03:12:52.175Z,29.20
2019-03-30T03:15:21.709Z,27.95
2019-03-30T03:17:51.263Z,28.55
2019-03-30T03:20:21.188Z,28.35
2019-03-30T03:22:50.737Z,29.57
2019-03-30T03:25:20.447Z,29.70
2019-03-30T03:27:49.992Z,30.12
2019-03-30T03:30:19.567Z,29.98
2019-03-30T03:32:49.135Z,30.02
2019-03-30T03:35:18.727Z,29.63
2019-03-30T03:37:48.309Z,28.95
2019-03-30T03:40:17.871Z,29.18
2019-03-30T03:42:47.445Z,28.10
2019-03-30T03:45:17.001Z,29.12
2019-03-30T03:47:46.574Z,27.70
2019-03-30T03:50:40.910Z,28.62
2019-03-30T03:53:12.168Z,28.65
2019-03-30T03:55:41.819Z,29.05
2019-03-30T03:58:11.588Z,28.77
2019-03-30T04:00:41.139Z,30.88
2019-03-30T04:03:11.334Z,29.18
2019-03-30T04:05:41.881Z,27.67
2019-03-30T04:08:12.836Z,28.80
2019-03-30T04:10:42.694Z,28.17
2019-03-30T04:13:14.060Z,29.80
2019-03-30T04:15:43.594Z,28.60
2019-03-30T04:18:13.151Z,29.52
2019-03-30T04:20:42.822Z,28.15
2019-03-30T04:23:12.355Z,29.20
2019-03-30T04:25:41.965Z,28.85
2019-03-30T04:28:11.503Z,30.77
2019-03-30T04:30:41.077Z,28.00
2019-03-30T04:33:10.635Z,28.50
2019-03-30T04:35:40.186Z,28.30
2019-03-30T04:38:14.209Z,27.30
2019-03-30T04:40:42.451Z,29.55
2019-03-30T04:43:12.049Z,28.12
2019-03-30T04:45:41.607Z,28.67
2019-03-30T04:48:11.155Z,30.27
2019-03-30T04:50:41.640Z,28.85
2019-03-30T04:53:12.284Z,28.50
2019-03-30T04:55:42.914Z,29.00
2019-03-30T04:58:12.731Z,29.45
2019-03-30T05:00:42.279Z,28.90
2019-03-30T05:03:11.857Z,28.17
2019-03-30T05:05:43.094Z,28.47
2019-03-30T05:08:12.639Z,27.87
2019-03-30T05:10:42.174Z,28.40
2019-03-30T05:13:11.734Z,27.85
2019-03-30T05:15:41.292Z,29.72
2019-03-30T05:18:10.858Z,27.85
2019-03-30T05:20:40.439Z,26.73
2019-03-30T05:23:09.995Z,27.75
2019-03-30T05:25:39.558Z,26.20
2019-03-30T05:28:09.475Z,28.30
2019-03-30T05:30:39.056Z,26.62
2019-03-30T05:33:08.846Z,28.35
2019-03-30T05:35:38.378Z,27.55
2019-03-30T05:38:07.952Z,28.55
2019-03-30T05:40:37.499Z,28.32
2019-03-30T05:43:07.070Z,28.05
2019-03-30T05:45:36.629Z,27.67
2019-03-30T05:48:06.166Z,27.95
2019-03-30T05:50:35.981Z,28.27
2019-03-30T05:53:05.556Z,29.05
2019-03-30T05:55:35.116Z,28.75
2019-03-30T05:58:04.659Z,28.27
2019-03-30T06:00:34.211Z,30.02
2019-03-30T06:03:03.797Z,30.65
2019-03-30T06:05:33.343Z,28.17
2019-03-30T06:08:02.900Z,29.65
2019-03-30T06:10:32.467Z,30.10
2019-03-30T06:13:02.031Z,28.73
2019-03-30T06:15:31.607Z,30.72
2019-03-30T06:18:01.194Z,31.70
2019-03-30T06:20:30.733Z,31.12
2019-03-30T06:23:00.292Z,31.75
2019-03-30T06:25:29.851Z,31.45
2019-03-30T06:28:00.314Z,30.52
2019-03-30T06:30:30.131Z,32.45
2019-03-30T06:32:59.688Z,30.60
2019-03-30T06:35:29.267Z,31.90
2019-03-30T06:37:58.831Z,32.90
2019-03-30T06:40:28.704Z,32.40
2019-03-30T06:42:58.253Z,31.73
2019-03-30T06:45:27.824Z,32.50
2019-03-30T06:47:57.401Z,32.15
2019-03-30T06:50:26.978Z,32.35
2019-03-30T06:52:58.494Z,30.60
2019-03-30T06:55:27.712Z,31.00
2019-03-30T06:57:57.293Z,30.32
2019-03-30T07:00:33.771Z,28.75
2019-03-30T07:03:04.881Z,28.25
2019-03-30T07:05:41.504Z,26.90
2019-03-30T07:08:15.677Z,29.77
2019-03-30T07:10:45.433Z,28.75
2019-03-30T07:13:15.007Z,28.07
2019-03-30T07:15:45.762Z,27.98
2019-03-30T07:18:16.231Z,27.62
2019-03-30T07:20:45.846Z,27.35
2019-03-30T07:23:15.392Z,27.37
2019-03-30T07:25:44.949Z,26.50
2019-03-30T07:28:15.508Z,25.88
2019-03-30T07:30:45.055Z,25.02
2019-03-30T07:33:14.798Z,25.80
2019-03-30T07:35:44.709Z,24.45
2019-03-30T07:38:14.274Z,22.55
2019-03-30T07:40:43.835Z,23.22
2019-03-30T07:43:13.746Z,22.22
2019-03-30T07:45:43.356Z,20.85
2019-03-30T07:48:12.914Z,22.67
2019-03-30T07:50:42.475Z,21.60
2019-03-30T07:53:25.253Z,21.02
2019-03-30T07:55:43.194Z,20.72
2019-03-30T07:58:12.763Z,22.20
2019-03-30T08:00:42.321Z,21.37
2019-03-30T08:03:11.895Z,21.65
2019-03-30T08:05:42.991Z,21.60
2019-03-30T08:08:12.545Z,20.97
2019-03-30T08:10:42.404Z,19.65
2019-03-30T08:13:11.951Z,20.75
2019-03-30T08:15:41.663Z,22.37
2019-03-30T08:18:11.236Z,21.62
2019-03-30T08:20:41.112Z,21.37
2019-03-30T08:23:10.690Z,22.10
2019-03-30T08:25:40.235Z,21.15
2019-03-30T08:28:09.823Z,21.35
2019-03-30T08:30:39.384Z,21.45
2019-03-30T08:33:08.962Z,21.10
2019-03-30T08:35:38.551Z,20.30
2019-03-30T08:38:09.414Z,20.32
2019-03-30T08:40:38.939Z,19.92
2019-03-30T08:43:08.812Z,20.37
2019-03-30T08:45:38.720Z,20.37
2019-03-30T08:48:08.298Z,20.65
2019-03-30T08:50:37.853Z,21.30
2019-03-30T08:53:07.499Z,20.35
2019-03-30T08:55:37.068Z,19.37
2019-03-30T08:58:06.965Z,20.17
2019-03-30T09:00:41.111Z,19.80
2019-03-30T09:03:10.664Z,19.73
2019-03-30T09:05:40.406Z,19.20
2019-03-30T09:08:09.970Z,18.67
2019-03-30T09:10:39.933Z,18.85
2019-03-30T09:13:09.515Z,18.85
2019-03-30T09:15:39.085Z,17.73
2019-03-30T09:18:08.690Z,17.85
2019-03-30T09:20:38.226Z,18.02
2019-03-30T09:23:08.050Z,18.17
2019-03-30T09:25:37.608Z,17.48
2019-03-30T09:28:07.470Z,17.87
2019-03-30T09:30:37.150Z,17.40
2019-03-30T09:33:06.642Z,16.32
2019-03-30T09:35:36.214Z,16.50
2019-03-30T09:38:05.776Z,17.10
2019-03-30T09:40:35.333Z,16.62
2019-03-30T09:43:04.953Z,16.10
2019-03-30T09:45:34.507Z,15.88
2019-03-30T09:48:05.027Z,15.48
2019-03-30T09:50:34.584Z,15.23
2019-03-30T09:53:04.136Z,14.85
2019-03-30T09:55:33.834Z,14.75
2019-03-30T09:58:03.399Z,14.10
2019-03-30T10:00:32.973Z,13.85
2019-03-30T10:03:05.814Z,13.90
2019-03-30T10:05:33.714Z,13.70
2019-03-30T10:08:03.483Z,13.72
2019-03-30T10:10:33.024Z,13.32
2019-03-30T10:13:02.582Z,11.93
2019-03-30T10:15:32.546Z,12.68
2019-03-30T10:18:02.124Z,12.88
2019-03-30T10:20:31.964Z,11.55
2019-03-30T10:23:02.619Z,11.43
2019-03-30T10:25:33.314Z,11.65
2019-03-30T10:28:02.858Z,10.38
2019-03-30T10:30:32.428Z,11.30
2019-03-30T10:33:02.035Z,10.72
2019-03-30T10:35:31.592Z,10.23
2019-03-30T10:38:01.189Z,10.58
2019-03-30T10:40:30.758Z,10.53
2019-03-30T10:43:00.329Z,9.55
2019-03-30T10:45:29.884Z,10.45
2019-03-30T10:47:59.432Z,10.13
2019-03-30T10:50:29.010Z,9.95
2019-03-30T10:52:59.566Z,10.00
2019-03-30T10:55:30.296Z,9.70
2019-03-30T10:57:59.760Z,9.90
2019-03-30T11:00:34.929Z,9.73
2019-03-30T11:03:04.464Z,9.23
2019-03-30T11:05:34.098Z,9.23
2019-03-30T11:08:03.652Z,9.98
2019-03-30T11:10:33.239Z,10.15
2019-03-30T11:13:02.950Z,9.78
2019-03-30T11:15:34.122Z,9.45
2019-03-30T11:18:03.752Z,9.55
2019-03-30T11:20:33.298Z,10.15
2019-03-30T11:23:02.862Z,9.90
2019-03-30T11:25:32.444Z,10.05
2019-03-30T11:28:01.992Z,10.48
2019-03-30T11:30:31.559Z,10.60
2019-03-30T11:33:02.253Z,10.50
2019-03-30T11:35:31.815Z,11.00
2019-03-30T11:38:01.389Z,11.15
2019-03-30T11:40:31.047Z,11.93
2019-03-30T11:43:02.080Z,11.03
2019-03-30T11:45:31.940Z,11.70
2019-03-30T11:48:01.491Z,10.85
2019-03-30T11:50:31.095Z,11.10
2019-03-30T11:53:00.756Z,10.82
2019-03-30T11:55:30.320Z,18.02
2019-03-30T11:57:59.852Z,13.93
2019-03-30T12:00:29.412Z,19.02
2019-03-30T12:02:58.992Z,16.42
2019-03-30T12:05:28.549Z,14.55
2019-03-30T12:07:58.112Z,14.90
2019-03-30T12:10:28.661Z,15.68
2019-03-30T12:12:58.571Z,15.48
2019-03-30T12:15:28.164Z,16.60
2019-03-30T12:17:57.663Z,18.35
2019-03-30T12:20:27.227Z,15.08
2019-03-30T12:22:56.781Z,16.25
2019-03-30T12:25:35.595Z,15.18
2019-03-30T12:27:57.534Z,16.02
2019-03-30T12:30:27.096Z,18.15
2019-03-30T12:32:56.751Z,15.80
2019-03-30T12:35:26.311Z,15.98
2019-03-30T12:37:55.867Z,13.32
2019-03-30T12:40:25.730Z,11.75
2019-03-30T12:42:55.481Z,11.12
2019-03-30T12:45:26.027Z,10.98
2019-03-30T12:47:55.595Z,10.55
2019-03-30T12:50:25.139Z,10.88
2019-03-30T12:52:54.686Z,10.55
2019-03-30T12:55:24.251Z,10.45
2019-03-30T12:57:53.787Z,10.13
2019-03-30T13:00:23.332Z,10.05
2019-03-30T13:02:52.921Z,9.80
2019-03-30T13:05:22.463Z,10.23
2019-03-30T13:07:52.361Z,9.88
2019-03-30T13:10:21.913Z,10.15
2019-03-30T13:12:51.451Z,9.48
2019-03-30T13:15:21.009Z,9.40
2019-03-30T13:17:50.555Z,9.40
2019-03-30T13:20:20.396Z,10.08
2019-03-30T13:22:50.002Z,9.40
2019-03-30T13:25:19.712Z,9.10
2019-03-30T13:27:49.261Z,9.63
2019-03-30T13:30:18.819Z,9.63
2019-03-30T13:32:48.375Z,9.40
2019-03-30T13:35:17.934Z,9.78
2019-03-30T13:37:47.483Z,9.03
2019-03-30T13:40:17.039Z,9.63
2019-03-30T13:42:46.609Z,9.53
2019-03-30T13:45:16.154Z,9.05
2019-03-30T13:47:45.706Z,9.50
2019-03-30T13:50:15.263Z,9.10
2019-03-30T13:52:44.840Z,9.20
2019-03-30T13:55:15.399Z,9.30
2019-03-30T13:57:44.954Z,9.15
2019-03-30T14:00:14.511Z,9.28
2019-03-30T14:02:44.322Z,9.23
2019-03-30T14:05:13.913Z,9.33
2019-03-30T14:07:43.466Z,9.60
2019-03-30T14:10:13.017Z,9.13
2019-03-30T14:12:42.911Z,9.50
2019-03-30T14:15:12.471Z,9.13
2019-03-30T14:17:42.036Z,9.50
2019-03-30T14:20:11.935Z,9.20
2019-03-30T14:22:41.487Z,9.13
2019-03-30T14:25:11.030Z,9.18
2019-03-30T14:27:40.500Z,9.13
2019-03-30T14:30:11.637Z,8.80
2019-03-30T14:32:41.229Z,9.35
2019-03-30T14:35:10.805Z,8.43
2019-03-30T14:37:40.350Z,8.53
2019-03-30T14:40:09.970Z,8.60
2019-03-30T14:42:39.520Z,9.00
2019-03-30T14:45:10.712Z,8.68
2019-03-30T14:47:40.268Z,8.58
2019-03-30T14:50:09.829Z,8.58
2019-03-30T14:52:39.387Z,8.10
2019-03-30T14:55:09.913Z,7.45
2019-03-30T14:57:39.530Z,7.92
2019-03-30T15:00:12.909Z,7.87
2019-03-30T15:02:42.491Z,7.78
2019-03-30T15:05:12.053Z,7.42
2019-03-30T15:07:41.922Z,7.75
2019-03-30T15:10:11.477Z,6.67
2019-03-30T15:12:41.021Z,7.03
2019-03-30T15:15:11.095Z,6.83
2019-03-30T17:38:28.163Z,12.18
2019-03-30T17:40:57.932Z,11.83
2019-03-30T17:43:27.843Z,12.50
2019-03-30T17:45:58.402Z,14.30
2019-03-30T17:48:28.268Z,12.25
2019-03-30T17:50:58.369Z,11.33
2019-03-30T17:53:28.299Z,11.97
2019-03-30T17:55:57.857Z,11.97
2019-03-30T17:58:27.417Z,13.75
2019-03-30T18:00:57.004Z,12.35
2019-03-30T18:03:26.831Z,11.65
2019-03-30T18:05:56.388Z,11.93
2019-03-30T18:08:25.963Z,14.10
2019-03-30T18:10:55.639Z,16.32
2019-03-30T18:13:26.331Z,15.18
2019-03-30T18:15:55.878Z,16.45
2019-03-30T18:18:25.431Z,19.35
2019-03-30T18:20:55.370Z,16.37
2019-03-30T18:23:25.446Z,17.48
2019-03-30T18:25:55.827Z,19.35
2019-03-30T18:28:27.414Z,23.65
2019-03-30T18:30:56.554Z,27.55
2019-03-30T18:33:26.425Z,24.98
2019-03-30T18:35:56.364Z,24.40
2019-03-30T18:38:26.848Z,26.52
2019-03-30T18:40:57.490Z,32.33
2019-03-30T18:43:27.046Z,40.15
2019-03-30T18:45:56.921Z,31.33
2019-03-30T18:48:26.470Z,32.90
2019-03-30T18:50:56.020Z,43.30
2019-03-30T18:53:26.249Z,40.05
2019-03-30T18:55:55.823Z,33.53
2019-03-30T18:58:25.310Z,29.75
2019-03-30T19:00:54.862Z,30.00
2019-03-30T19:03:24.539Z,28.70
2019-03-30T19:05:54.383Z,27.75
2019-03-30T19:08:23.943Z,26.62
2019-03-30T19:10:53.495Z,25.75
2019-03-30T19:13:23.422Z,25.52
2019-03-30T19:15:53.328Z,25.35
2019-03-30T19:18:22.903Z,24.60
2019-03-30T19:20:52.451Z,24.18
2019-03-30T19:23:22.380Z,25.37
2019-03-30T19:25:52.848Z,22.22
2019-03-30T19:28:22.388Z,23.52
2019-03-30T19:30:51.955Z,23.32
2019-03-30T19:33:21.509Z,22.37
2019-03-30T19:35:51.716Z,22.35
2019-03-30T19:38:21.636Z,23.07
2019-03-30T19:40:51.207Z,27.05
2019-03-30T19:43:21.235Z,50.25
2019-03-30T19:45:50.794Z,103.65
2019-03-30T19:48:20.344Z,69.03
2019-03-30T19:50:49.960Z,54.85
2019-03-30T19:53:19.531Z,50.48
2019-03-30T19:55:49.152Z,47.08
2019-03-30T19:58:18.699Z,46.13
2019-03-30T20:00:48.242Z,40.03
2019-03-30T20:03:17.997Z,40.88
2019-03-30T20:05:47.537Z,49.23
2019-03-30T20:08:17.101Z,47.20
2019-03-30T20:10:46.659Z,43.78
2019-03-30T20:13:16.221Z,40.38
2019-03-30T20:15:45.825Z,38.28
2019-03-30T20:18:15.396Z,36.70
2019-03-30T20:20:44.961Z,37.73
2019-03-30T20:23:14.524Z,36.35
2019-03-30T20:25:44.085Z,35.33
2019-03-30T20:28:15.499Z,39.25
2019-03-30T20:30:45.030Z,39.23
2019-03-30T20:33:14.759Z,37.30
2019-03-30T20:35:44.307Z,35.28
2019-03-30T20:38:13.974Z,33.60
2019-03-30T20:40:45.143Z,33.15
2019-03-30T20:43:14.845Z,30.82
2019-03-30T20:45:45.016Z,32.53
2019-03-30T20:48:14.555Z,31.82
2019-03-30T20:50:44.451Z,31.33
2019-03-30T20:53:13.995Z,29.02
2019-03-30T20:55:43.551Z,29.52
2019-03-30T20:58:13.191Z,28.67
2019-03-30T21:00:42.735Z,29.42
2019-03-30T21:03:13.387Z,29.23
2019-03-30T21:05:42.947Z,28.77
2019-03-30T21:08:12.515Z,30.90
2019-03-30T21:10:42.087Z,28.10
2019-03-30T21:13:11.953Z,27.15
2019-03-30T21:15:41.764Z,26.33
2019-03-30T21:18:11.424Z,26.45
2019-03-30T21:20:40.972Z,26.55
2019-03-30T21:23:10.564Z,26.15
2019-03-30T21:25:40.124Z,30.97
2019-03-30T21:28:09.690Z,26.75
2019-03-30T21:30:57.475Z,26.85
2019-03-30T21:33:27.392Z,25.72
2019-03-30T21:35:56.947Z,25.27
2019-03-30T21:38:26.512Z,24.15
2019-03-30T21:40:56.066Z,25.48
2019-03-30T21:43:25.871Z,24.60
2019-03-30T21:45:55.495Z,24.57
2019-03-30T21:48:25.013Z,24.55
2019-03-30T21:50:54.575Z,23.00
2019-03-30T21:53:24.141Z,23.98
2019-03-30T21:55:53.690Z,24.30
2019-03-30T21:58:23.550Z,23.35
2019-03-30T22:00:53.087Z,23.27
2019-03-30T22:03:22.911Z,23.15
2019-03-30T22:05:52.483Z,23.77
2019-03-30T22:08:22.025Z,22.82
2019-03-30T22:10:51.591Z,24.00
2019-03-30T22:13:21.632Z,23.12
2019-03-30T22:15:51.428Z,24.47
2019-03-30T22:18:21.007Z,22.65
2019-03-30T22:20:50.875Z,23.42
2019-03-30T22:23:20.456Z,24.67
2019-03-30T22:25:50.006Z,24.30
2019-03-30T22:28:19.611Z,23.20
2019-03-30T22:30:49.170Z,24.32
2019-03-30T22:33:18.751Z,23.50
2019-03-30T22:35:48.291Z,23.10
2019-03-30T22:38:17.851Z,23.05
2019-03-30T22:40:47.423Z,22.65
2019-03-30T22:43:16.975Z,22.75
2019-03-30T22:45:46.526Z,23.70
2019-03-30T22:48:16.091Z,23.35
2019-03-30T22:50:45.983Z,23.52
2019-03-30T22:53:15.586Z,23.15
2019-03-30T22:55:45.120Z,23.65
2019-03-30T22:58:14.675Z,21.90
2019-03-30T23:00:45.833Z,23.87
2019-03-30T23:03:15.687Z,21.70
2019-03-30T23:05:45.252Z,22.85
2019-03-30T23:08:14.809Z,23.27
2019-03-30T23:10:44.350Z,23.40
2019-03-30T23:13:13.927Z,24.00
2019-03-30T23:15:43.473Z,24.67
2019-03-30T23:18:13.070Z,25.32
2019-03-30T23:20:42.878Z,23.57
2019-03-30T23:23:12.430Z,22.95
2019-03-30T23:25:42.331Z,24.43
2019-03-30T23:28:11.886Z,23.92
2019-03-30T23:30:53.475Z,24.95
2019-03-30T23:33:12.743Z,23.87
2019-03-30T23:35:42.307Z,23.87
2019-03-30T23:38:11.844Z,23.83
2019-03-30T23:40:41.397Z,25.88
2019-03-30T23:43:13.372Z,24.70
2019-03-30T23:45:47.544Z,24.72
2019-03-30T23:48:37.007Z,25.48
2019-03-30T23:54:23.837Z,25.37
2019-03-30T23:57:01.538Z,25.60
2019-03-30T23:59:53.065Z,26.15
